地図

経路データ

SID SEASON NUMBER BASIN SUBBASIN NAME ISO_TIME NATURE LAT LON WMO_WIND WMO_PRES WMO_AGENCY TRACK_TYPE DIST2LAND LANDFALL IFLAG USA_AGENCY USA_ATCF_ID USA_LAT USA_LON USA_RECORD USA_STATUS USA_WIND USA_PRES USA_SSHS USA_R34_NE USA_R34_SE USA_R34_SW USA_R34_NW USA_R50_NE USA_R50_SE USA_R50_SW USA_R50_NW USA_R64_NE USA_R64_SE USA_R64_SW USA_R64_NW USA_POCI USA_ROCI USA_RMW USA_EYE TOKYO_LAT TOKYO_LON TOKYO_GRADE TOKYO_WIND TOKYO_PRES TOKYO_R50_DIR TOKYO_R50_LONG TOKYO_R50_SHORT TOKYO_R30_DIR TOKYO_R30_LONG TOKYO_R30_SHORT TOKYO_LAND CMA_LAT CMA_LON CMA_CAT CMA_WIND CMA_PRES HKO_LAT HKO_LON HKO_CAT HKO_WIND HKO_PRES NEWDELHI_LAT NEWDELHI_LON NEWDELHI_GRADE NEWDELHI_WIND NEWDELHI_PRES NEWDELHI_CI NEWDELHI_DP NEWDELHI_POCI REUNION_LAT REUNION_LON REUNION_TYPE REUNION_WIND REUNION_PRES REUNION_TNUM REUNION_CI REUNION_RMW REUNION_R34_NE REUNION_R34_SE REUNION_R34_SW REUNION_R34_NW REUNION_R50_NE REUNION_R50_SE REUNION_R50_SW REUNION_R50_NW REUNION_R64_NE REUNION_R64_SE REUNION_R64_SW REUNION_R64_NW BOM_LAT BOM_LON BOM_TYPE BOM_WIND BOM_PRES BOM_TNUM BOM_CI BOM_RMW BOM_R34_NE BOM_R34_SE BOM_R34_SW BOM_R34_NW BOM_R50_NE BOM_R50_SE BOM_R50_SW BOM_R50_NW BOM_R64_NE BOM_R64_SE BOM_R64_SW BOM_R64_NW BOM_ROCI BOM_POCI BOM_EYE BOM_POS_METHOD BOM_PRES_METHOD NADI_LAT NADI_LON NADI_CAT NADI_WIND NADI_PRES WELLINGTON_LAT WELLINGTON_LON WELLINGTON_WIND WELLINGTON_PRES DS824_LAT DS824_LON DS824_STAGE DS824_WIND DS824_PRES TD9636_LAT TD9636_LON TD9636_STAGE TD9636_WIND TD9636_PRES TD9635_LAT TD9635_LON TD9635_WIND TD9635_PRES TD9635_ROCI NEUMANN_LAT NEUMANN_LON NEUMANN_CLASS NEUMANN_WIND NEUMANN_PRES MLC_LAT MLC_LON MLC_CLASS MLC_WIND MLC_PRES USA_GUST BOM_GUST BOM_GUST_PER REUNION_GUST REUNION_GUST_PER USA_SEAHGT USA_SEARAD_NE USA_SEARAD_SE USA_SEARAD_SW USA_SEARAD_NW STORM_SPEED STORM_DIR
1883228N16309 1883 22 NA NA NOT_NAMED 1883-08-16 06:00:00 TS 16.3000 -50.8000 spur-merge 1222 1222 _____________O -1 16.3000 -50.8000 TS 35 10 308
1883228N16309 1883 22 NA NA NOT_NAMED 1883-08-16 09:00:00 TS 16.6002 -51.1998 spur-merge 1242 1229 _____________P -1 16.6002 -51.1998 TS 35 10 308
1883228N16309 1883 22 NA NA NOT_NAMED 1883-08-16 12:00:00 TS 16.9000 -51.6000 spur-merge 1229 1213 _____________O -1 16.9000 -51.6000 TS 35 10 308
1883228N16309 1883 22 NA NA NOT_NAMED 1883-08-16 15:00:00 TS 17.1999 -52.0001 spur-merge 1213 1199 _____________P -1 17.1999 -52.0001 TS 37 10 308
1883228N16309 1883 22 NA NA NOT_NAMED 1883-08-16 18:00:00 TS 17.5000 -52.4000 spur-merge 1199 1188 _____________O -1 17.5000 -52.4000 TS 40 10 308
1883228N16309 1883 22 NA NA NOT_NAMED 1883-08-16 21:00:00 TS 17.7999 -52.8001 spur-merge 1188 1179 _____________P -1 17.7999 -52.8001 TS 42 10 308
1883228N16309 1883 22 NA NA NOT_NAMED 1883-08-17 00:00:00 TS 18.1000 -53.2000 spur-merge 1179 1171 _____________O -1 18.1000 -53.2000 TS 45 10 308
1883228N16309 1883 22 NA NA NOT_NAMED 1883-08-17 03:00:00 TS 18.3999 -53.6001 spur-merge 1173 1166 _____________P -1 18.3999 -53.6001 TS 47 10 308
1883228N16309 1883 22 NA NA NOT_NAMED 1883-08-17 06:00:00 TS 18.7000 -54.0000 spur-merge 1169 1162 _____________O -1 18.7000 -54.0000 TS 50 10 308
1883228N16309 1883 22 NA NA NOT_NAMED 1883-08-17 09:00:00 TS 18.9999 -54.4001 spur-merge 1168 1140 _____________P -1 18.9999 -54.4001 TS 52 10 308
1883228N16309 1883 22 NA NA NOT_NAMED 1883-08-17 12:00:00 TS 19.3000 -54.8000 spur-merge 1140 1101 _____________O -1 19.3000 -54.8000 TS 55 10 308
1883228N16309 1883 22 NA NA NOT_NAMED 1883-08-17 15:00:00 TS 19.5999 -55.2001 spur-merge 1101 1063 _____________P -1 19.5999 -55.2001 TS 57 10 309
1883228N16309 1883 22 NA NA NOT_NAMED 1883-08-17 18:00:00 TS 19.9000 -55.6000 spur-merge 1063 1027 _____________O -1 19.9000 -55.6000 TS 60 10 308
1883228N16309 1883 22 NA NA NOT_NAMED 1883-08-17 21:00:00 TS 20.2075 -56.0150 spur-merge 1027 992 _____________P -1 20.2075 -56.0150 TS 60 10 309
1883228N16309 1883 22 NA NA NOT_NAMED 1883-08-18 00:00:00 TS 20.5000 -56.4000 spur-merge 992 967 _____________O -1 20.5000 -56.4000 TS 60 9 310
1883228N16309 1883 22 NA NA NOT_NAMED 1883-08-18 03:00:00 TS 20.7573 -56.7078 spur-merge 969 945 _____________P -1 20.7573 -56.7078 TS 62 8 312
1883228N16309 1883 22 NA NA NOT_NAMED 1883-08-18 06:00:00 TS 21.0000 -57.0000 spur-merge 945 922 _____________O -1 21.0000 -57.0000 HU 65 8 310
1883228N16309 1883 22 NA NA NOT_NAMED 1883-08-18 09:00:00 TS 21.2499 -57.3351 spur-merge 922 895 _____________P -1 21.2499 -57.3351 HU 65 8 307
1883228N16309 1883 22 NA NA NOT_NAMED 1883-08-18 12:00:00 TS 21.5000 -57.7000 spur-merge 895 865 _____________O -1 21.5000 -57.7000 HU 65 9 305
1883228N16309 1883 22 NA NA NOT_NAMED 1883-08-18 15:00:00 TS 21.7425 -58.1001 spur-merge 865 842 _____________P -1 21.7425 -58.1001 HU 65 9 304
1883228N16309 1883 22 NA NA NOT_NAMED 1883-08-18 18:00:00 TS 22.0000 -58.5000 spur-merge 842 826 _____________O -1 22.0000 -58.5000 HU 65 9 309
1883228N16309 1883 22 NA NA NOT_NAMED 1883-08-18 21:00:00 TS 22.2998 -58.8501 spur-merge 823 815 _____________P -1 22.2998 -58.8501 HU 65 9 313
1883228N16309 1883 22 NA NA NOT_NAMED 1883-08-19 00:00:00 TS 22.6000 -59.2000 spur-merge 815 794 _____________O -1 22.6000 -59.2000 HU 65 9 309
1883228N16309 1883 22 NA NA NOT_NAMED 1883-08-19 03:00:00 TS 22.8500 -59.5927 spur-merge 794 784 _____________P -1 22.8500 -59.5927 HU 65 9 304
1883228N16309 1883 22 NA NA NOT_NAMED 1883-08-19 06:00:00 TS 23.1000 -60.0000 spur-merge 784 776 _____________O -1 23.1000 -60.0000 HU 65 9 306
1883228N16309 1883 22 NA NA NOT_NAMED 1883-08-19 09:00:00 TS 23.4000 -60.4149 spur-merge 777 770 _____________P -1 23.4000 -60.4149 HU 65 10 309
1883228N16309 1883 22 NA NA NOT_NAMED 1883-08-19 12:00:00 TS 23.7000 -60.8000 spur-merge 773 767 _____________O -1 23.7000 -60.8000 HU 65 9 311
1883228N16309 1883 22 NA NA NOT_NAMED 1883-08-19 15:00:00 TS 23.9573 -61.1153 spur-merge 780 774 _____________P -1 23.9573 -61.1153 HU 65 7 312
1883228N16309 1883 22 NA NA NOT_NAMED 1883-08-19 18:00:00 TS 24.2000 -61.4000 spur-merge 780 778 _____________O -1 24.2000 -61.4000 HU 65 7 313
1883228N16309 1883 22 NA NA NOT_NAMED 1883-08-19 21:00:00 TS 24.4348 -61.6853 spur-merge 782 782 _____________P -1 24.4348 -61.6853 HU 65 7 312
1883228N16309 1883 22 NA NA NOT_NAMED 1883-08-20 00:00:00 TS 24.7000 -62.0000 spur-merge 796 796 _____________O -1 24.7000 -62.0000 HU 65 9 313
1883228N16309 1883 22 NA NA NOT_NAMED 1883-08-20 03:00:00 TS 25.0350 -62.3850 spur-merge 808 808 _____________P -1 25.0350 -62.3850 HU 65 10 314
1883228N16309 1883 22 NA NA NOT_NAMED 1883-08-20 06:00:00 TS 25.4000 -62.8000 spur-merge 834 834 _____________O -1 25.4000 -62.8000 HU 65 10 314
1883228N16309 1883 22 NA NA NOT_NAMED 1883-08-20 09:00:00 TS 25.7499 -63.2002 spur-merge 852 852 _____________P -1 25.7499 -63.2002 HU 65 10 314
1883228N16309 1883 22 NA NA NOT_NAMED 1883-08-20 12:00:00 TS 26.1000 -63.6000 spur-merge 885 885 _____________O -1 26.1000 -63.6000 HU 65 10 315
1883228N16309 1883 22 NA NA NOT_NAMED 1883-08-20 15:00:00 TS 26.4574 -64.0002 spur-merge 920 918 _____________P -1 26.4574 -64.0002 HU 65 10 314
1883228N16309 1883 22 NA NA NOT_NAMED 1883-08-20 18:00:00 TS 26.8000 -64.4000 spur-merge 947 947 _____________O -1 26.8000 -64.4000 HU 65 10 312
1883228N16309 1883 22 NA NA NOT_NAMED 1883-08-20 21:00:00 TS 27.0999 -64.8004 spur-merge 975 975 _____________P -1 27.0999 -64.8004 HU 65 9 310
1883228N16309 1883 22 NA NA NOT_NAMED 1883-08-21 00:00:00 TS 27.4000 -65.2000 spur-merge 997 997 _____________O -1 27.4000 -65.2000 HU 65 10 312
1883228N16309 1883 22 NA NA NOT_NAMED 1883-08-21 03:00:00 TS 27.7499 -65.6075 spur-merge 1009 1009 _____________P -1 27.7499 -65.6075 HU 65 10 315
1883228N16309 1883 22 NA NA NOT_NAMED 1883-08-21 06:00:00 TS 28.1000 -66.0000 spur-merge 1033 1033 _____________O -1 28.1000 -66.0000 HU 65 9 315
1883228N16309 1883 22 NA NA NOT_NAMED 1883-08-21 09:00:00 TS 28.4072 -66.3430 spur-merge 1050 1043 _____________P -1 28.4126 -66.3598 HU 65 9 314
1883228N16309 1883 22 NA NA NOT_NAMED 1883-08-21 12:00:00 TS 28.7000 -66.7000 spur-merge 1050 _____________O -1 28.7000 -66.7000 HU 65 9 313

IBTrACS Databaseについて

本データベースは、米国NOAAが公開する1842年以降の世界の熱帯低気圧のベストトラックデータアーカイブInternational Best Track Archive for Climate Stewardship (IBTrACS)を、ウェブで閲覧しやすい形式に変換したものです。

最終更新日:2021-12-01